<?xml version="1.0" encoding="utf-8"?>
<gpx xmlns:xsi="http://www.w3.org/2001/XMLSchema-instance" xmlns:xsd="http://www.w3.org/2001/XMLSchema" version="1.1" creator="Shapelink.com" xmlns="http://www.topografix.com/GPX/1/1" xmlns:gpxtpx="http://www.garmin.com/xmlschemas/TrackPointExtension/v1">
  <metadata>
    <name>Gåing 0.42 km, 2013-04-12</name>
    <desc></desc>
    <author><name>Mikael Blom</name></author> 
    <time>2013-04-12T19:29:41Z</time>
  </metadata>
  <trk>
    <name>Gåing 0.42 km, 2013-04-12</name>
    <trkseg>
      <trkpt lat="59.9757529" lon="17.7388626">
        <ele>24.1703</ele>
        <time>2013-04-12T19:29:41Z</time>
      </trkpt>
      <trkpt lat="59.9757647" lon="17.7388715">
        <ele>23.6896</ele>
        <time>2013-04-12T19:29:42Z</time>
      </trkpt>
      <trkpt lat="59.9757694" lon="17.7388876">
        <ele>23.209</ele>
        <time>2013-04-12T19:29:43Z</time>
      </trkpt>
      <trkpt lat="59.975774" lon="17.7389098">
        <ele>23.6896</ele>
        <time>2013-04-12T19:29:44Z</time>
      </trkpt>
      <trkpt lat="59.9757853" lon="17.7389301">
        <ele>24.1703</ele>
        <time>2013-04-12T19:29:45Z</time>
      </trkpt>
      <trkpt lat="59.9757942" lon="17.7389483">
        <ele>24.651</ele>
        <time>2013-04-12T19:29:46Z</time>
      </trkpt>
      <trkpt lat="59.9758015" lon="17.7389653">
        <ele>24.651</ele>
        <time>2013-04-12T19:29:47Z</time>
      </trkpt>
      <trkpt lat="59.9758084" lon="17.7389815">
        <ele>24.651</ele>
        <time>2013-04-12T19:29:48Z</time>
      </trkpt>
      <trkpt lat="59.9758188" lon="17.7390005">
        <ele>25.1317</ele>
        <time>2013-04-12T19:29:49Z</time>
      </trkpt>
      <trkpt lat="59.9758301" lon="17.7390198">
        <ele>25.1317</ele>
        <time>2013-04-12T19:29:50Z</time>
      </trkpt>
      <trkpt lat="59.9758411" lon="17.7390358">
        <ele>25.1317</ele>
        <time>2013-04-12T19:29:51Z</time>
      </trkpt>
      <trkpt lat="59.9758525" lon="17.7390528">
        <ele>25.1317</ele>
        <time>2013-04-12T19:29:52Z</time>
      </trkpt>
      <trkpt lat="59.9758638" lon="17.7390702">
        <ele>25.1317</ele>
        <time>2013-04-12T19:29:53Z</time>
      </trkpt>
      <trkpt lat="59.9758752" lon="17.739086">
        <ele>25.1317</ele>
        <time>2013-04-12T19:29:54Z</time>
      </trkpt>
      <trkpt lat="59.9758865" lon="17.739102">
        <ele>25.1317</ele>
        <time>2013-04-12T19:29:55Z</time>
      </trkpt>
      <trkpt lat="59.9758973" lon="17.7391176">
        <ele>25.1317</ele>
        <time>2013-04-12T19:29:56Z</time>
      </trkpt>
      <trkpt lat="59.9759119" lon="17.7391309">
        <ele>25.1317</ele>
        <time>2013-04-12T19:29:57Z</time>
      </trkpt>
      <trkpt lat="59.97593" lon="17.7391428">
        <ele>25.6123</ele>
        <time>2013-04-12T19:29:58Z</time>
      </trkpt>
      <trkpt lat="59.9759433" lon="17.739158">
        <ele>26.0929</ele>
        <time>2013-04-12T19:29:59Z</time>
      </trkpt>
      <trkpt lat="59.9759539" lon="17.7391772">
        <ele>26.5736</ele>
        <time>2013-04-12T19:30:00Z</time>
      </trkpt>
      <trkpt lat="59.9759666" lon="17.7391942">
        <ele>26.5736</ele>
        <time>2013-04-12T19:30:01Z</time>
      </trkpt>
      <trkpt lat="59.9759794" lon="17.739212">
        <ele>27.5349</ele>
        <time>2013-04-12T19:30:02Z</time>
      </trkpt>
      <trkpt lat="59.9759906" lon="17.7392299">
        <ele>28.0155</ele>
        <time>2013-04-12T19:30:03Z</time>
      </trkpt>
      <trkpt lat="59.9760011" lon="17.7392495">
        <ele>28.0155</ele>
        <time>2013-04-12T19:30:04Z</time>
      </trkpt>
      <trkpt lat="59.9760098" lon="17.7392694">
        <ele>28.0155</ele>
        <time>2013-04-12T19:30:05Z</time>
      </trkpt>
      <trkpt lat="59.9760184" lon="17.7392885">
        <ele>28.4962</ele>
        <time>2013-04-12T19:30:06Z</time>
      </trkpt>
      <trkpt lat="59.9760295" lon="17.7393087">
        <ele>28.9769</ele>
        <time>2013-04-12T19:30:07Z</time>
      </trkpt>
      <trkpt lat="59.9760402" lon="17.7393288">
        <ele>29.4575</ele>
        <time>2013-04-12T19:30:08Z</time>
      </trkpt>
      <trkpt lat="59.9760501" lon="17.7393489">
        <ele>29.9381</ele>
        <time>2013-04-12T19:30:09Z</time>
      </trkpt>
      <trkpt lat="59.9760607" lon="17.7393681">
        <ele>30.4188</ele>
        <time>2013-04-12T19:30:10Z</time>
      </trkpt>
      <trkpt lat="59.9760711" lon="17.739388">
        <ele>30.4188</ele>
        <time>2013-04-12T19:30:11Z</time>
      </trkpt>
      <trkpt lat="59.9760818" lon="17.7394101">
        <ele>30.8995</ele>
        <time>2013-04-12T19:30:12Z</time>
      </trkpt>
      <trkpt lat="59.9760921" lon="17.7394311">
        <ele>30.8995</ele>
        <time>2013-04-12T19:30:13Z</time>
      </trkpt>
      <trkpt lat="59.9761018" lon="17.7394505">
        <ele>30.8995</ele>
        <time>2013-04-12T19:30:14Z</time>
      </trkpt>
      <trkpt lat="59.9761123" lon="17.7394704">
        <ele>31.3801</ele>
        <time>2013-04-12T19:30:15Z</time>
      </trkpt>
      <trkpt lat="59.9761228" lon="17.7394891">
        <ele>31.3801</ele>
        <time>2013-04-12T19:30:16Z</time>
      </trkpt>
      <trkpt lat="59.9761334" lon="17.7395061">
        <ele>31.3801</ele>
        <time>2013-04-12T19:30:17Z</time>
      </trkpt>
      <trkpt lat="59.9761451" lon="17.7395241">
        <ele>31.8607</ele>
        <time>2013-04-12T19:30:18Z</time>
      </trkpt>
      <trkpt lat="59.9761574" lon="17.7395421">
        <ele>31.8607</ele>
        <time>2013-04-12T19:30:19Z</time>
      </trkpt>
      <trkpt lat="59.9761687" lon="17.7395589">
        <ele>31.8607</ele>
        <time>2013-04-12T19:30:20Z</time>
      </trkpt>
      <trkpt lat="59.9761803" lon="17.739577">
        <ele>32.3416</ele>
        <time>2013-04-12T19:30:21Z</time>
      </trkpt>
      <trkpt lat="59.9761927" lon="17.7395934">
        <ele>32.8223</ele>
        <time>2013-04-12T19:30:22Z</time>
      </trkpt>
      <trkpt lat="59.9762065" lon="17.7396079">
        <ele>33.3029</ele>
        <time>2013-04-12T19:30:23Z</time>
      </trkpt>
      <trkpt lat="59.9762199" lon="17.7396214">
        <ele>33.7834</ele>
        <time>2013-04-12T19:30:24Z</time>
      </trkpt>
      <trkpt lat="59.9762329" lon="17.7396349">
        <ele>33.7834</ele>
        <time>2013-04-12T19:30:25Z</time>
      </trkpt>
      <trkpt lat="59.9762466" lon="17.7396476">
        <ele>34.2642</ele>
        <time>2013-04-12T19:30:26Z</time>
      </trkpt>
      <trkpt lat="59.9762585" lon="17.7396605">
        <ele>34.2642</ele>
        <time>2013-04-12T19:30:27Z</time>
      </trkpt>
      <trkpt lat="59.9762687" lon="17.7396749">
        <ele>34.2642</ele>
        <time>2013-04-12T19:30:28Z</time>
      </trkpt>
      <trkpt lat="59.9762803" lon="17.73969">
        <ele>34.7449</ele>
        <time>2013-04-12T19:30:29Z</time>
      </trkpt>
      <trkpt lat="59.976293" lon="17.7397027">
        <ele>34.7449</ele>
        <time>2013-04-12T19:30:30Z</time>
      </trkpt>
      <trkpt lat="59.9763064" lon="17.7397131">
        <ele>35.2255</ele>
        <time>2013-04-12T19:30:31Z</time>
      </trkpt>
      <trkpt lat="59.9763195" lon="17.7397221">
        <ele>35.2255</ele>
        <time>2013-04-12T19:30:32Z</time>
      </trkpt>
      <trkpt lat="59.976333" lon="17.7397315">
        <ele>35.2255</ele>
        <time>2013-04-12T19:30:33Z</time>
      </trkpt>
      <trkpt lat="59.9763469" lon="17.7397382">
        <ele>35.2255</ele>
        <time>2013-04-12T19:30:34Z</time>
      </trkpt>
      <trkpt lat="59.9763603" lon="17.7397405">
        <ele>35.2255</ele>
        <time>2013-04-12T19:30:35Z</time>
      </trkpt>
      <trkpt lat="59.9763718" lon="17.7397379">
        <ele>35.7061</ele>
        <time>2013-04-12T19:30:36Z</time>
      </trkpt>
      <trkpt lat="59.9763822" lon="17.7397333">
        <ele>35.7061</ele>
        <time>2013-04-12T19:30:37Z</time>
      </trkpt>
      <trkpt lat="59.9763943" lon="17.7397242">
        <ele>36.1868</ele>
        <time>2013-04-12T19:30:38Z</time>
      </trkpt>
      <trkpt lat="59.9764036" lon="17.7397079">
        <ele>36.1868</ele>
        <time>2013-04-12T19:30:39Z</time>
      </trkpt>
      <trkpt lat="59.9764119" lon="17.7396895">
        <ele>36.1868</ele>
        <time>2013-04-12T19:30:40Z</time>
      </trkpt>
      <trkpt lat="59.9764207" lon="17.7396735">
        <ele>36.6675</ele>
        <time>2013-04-12T19:30:41Z</time>
      </trkpt>
      <trkpt lat="59.9764284" lon="17.7396542">
        <ele>36.1868</ele>
        <time>2013-04-12T19:30:42Z</time>
      </trkpt>
      <trkpt lat="59.9764375" lon="17.739632">
        <ele>36.1868</ele>
        <time>2013-04-12T19:30:43Z</time>
      </trkpt>
      <trkpt lat="59.9764439" lon="17.739611">
        <ele>36.1868</ele>
        <time>2013-04-12T19:30:44Z</time>
      </trkpt>
      <trkpt lat="59.9764516" lon="17.7395903">
        <ele>35.7061</ele>
        <time>2013-04-12T19:30:45Z</time>
      </trkpt>
      <trkpt lat="59.97646" lon="17.7395704">
        <ele>35.7061</ele>
        <time>2013-04-12T19:30:46Z</time>
      </trkpt>
      <trkpt lat="59.9764677" lon="17.7395515">
        <ele>35.7061</ele>
        <time>2013-04-12T19:30:47Z</time>
      </trkpt>
      <trkpt lat="59.9764759" lon="17.7395335">
        <ele>35.7061</ele>
        <time>2013-04-12T19:30:48Z</time>
      </trkpt>
      <trkpt lat="59.9764826" lon="17.7395225">
        <ele>35.7061</ele>
        <time>2013-04-12T19:30:49Z</time>
      </trkpt>
      <trkpt lat="59.9764878" lon="17.7395062">
        <ele>35.7061</ele>
        <time>2013-04-12T19:30:50Z</time>
      </trkpt>
      <trkpt lat="59.9764951" lon="17.7394906">
        <ele>35.7061</ele>
        <time>2013-04-12T19:30:51Z</time>
      </trkpt>
      <trkpt lat="59.9765051" lon="17.7394787">
        <ele>35.7061</ele>
        <time>2013-04-12T19:30:52Z</time>
      </trkpt>
      <trkpt lat="59.9765166" lon="17.7394698">
        <ele>35.7061</ele>
        <time>2013-04-12T19:30:53Z</time>
      </trkpt>
      <trkpt lat="59.9765254" lon="17.7394591">
        <ele>35.2255</ele>
        <time>2013-04-12T19:30:54Z</time>
      </trkpt>
      <trkpt lat="59.9765341" lon="17.7394499">
        <ele>35.2255</ele>
        <time>2013-04-12T19:30:55Z</time>
      </trkpt>
      <trkpt lat="59.9765433" lon="17.7394408">
        <ele>35.2255</ele>
        <time>2013-04-12T19:30:56Z</time>
      </trkpt>
      <trkpt lat="59.9765537" lon="17.7394361">
        <ele>35.2255</ele>
        <time>2013-04-12T19:30:57Z</time>
      </trkpt>
      <trkpt lat="59.9765646" lon="17.7394299">
        <ele>34.7449</ele>
        <time>2013-04-12T19:30:58Z</time>
      </trkpt>
      <trkpt lat="59.9765729" lon="17.7394211">
        <ele>34.7449</ele>
        <time>2013-04-12T19:30:59Z</time>
      </trkpt>
      <trkpt lat="59.9765806" lon="17.7394152">
        <ele>34.2642</ele>
        <time>2013-04-12T19:31:00Z</time>
      </trkpt>
      <trkpt lat="59.9765878" lon="17.7394106">
        <ele>34.2642</ele>
        <time>2013-04-12T19:31:01Z</time>
      </trkpt>
      <trkpt lat="59.9765958" lon="17.7394035">
        <ele>33.7834</ele>
        <time>2013-04-12T19:31:02Z</time>
      </trkpt>
      <trkpt lat="59.9766034" lon="17.7393947">
        <ele>33.7834</ele>
        <time>2013-04-12T19:31:03Z</time>
      </trkpt>
      <trkpt lat="59.9766138" lon="17.7393875">
        <ele>33.7834</ele>
        <time>2013-04-12T19:31:04Z</time>
      </trkpt>
      <trkpt lat="59.9766262" lon="17.7393854">
        <ele>33.3029</ele>
        <time>2013-04-12T19:31:05Z</time>
      </trkpt>
      <trkpt lat="59.9766362" lon="17.7393829">
        <ele>33.7834</ele>
        <time>2013-04-12T19:31:06Z</time>
      </trkpt>
      <trkpt lat="59.976646" lon="17.739377">
        <ele>33.7834</ele>
        <time>2013-04-12T19:31:07Z</time>
      </trkpt>
      <trkpt lat="59.9766551" lon="17.7393702">
        <ele>33.7834</ele>
        <time>2013-04-12T19:31:08Z</time>
      </trkpt>
      <trkpt lat="59.9766651" lon="17.7393656">
        <ele>33.7834</ele>
        <time>2013-04-12T19:31:09Z</time>
      </trkpt>
      <trkpt lat="59.9766746" lon="17.7393632">
        <ele>33.7834</ele>
        <time>2013-04-12T19:31:10Z</time>
      </trkpt>
      <trkpt lat="59.9766836" lon="17.7393608">
        <ele>33.7834</ele>
        <time>2013-04-12T19:31:11Z</time>
      </trkpt>
      <trkpt lat="59.9766921" lon="17.7393568">
        <ele>33.7834</ele>
        <time>2013-04-12T19:31:12Z</time>
      </trkpt>
      <trkpt lat="59.9767009" lon="17.7393521">
        <ele>33.7834</ele>
        <time>2013-04-12T19:31:13Z</time>
      </trkpt>
      <trkpt lat="59.9767097" lon="17.7393495">
        <ele>33.3029</ele>
        <time>2013-04-12T19:31:14Z</time>
      </trkpt>
      <trkpt lat="59.9767183" lon="17.7393477">
        <ele>33.3029</ele>
        <time>2013-04-12T19:31:15Z</time>
      </trkpt>
      <trkpt lat="59.9767263" lon="17.7393443">
        <ele>33.3029</ele>
        <time>2013-04-12T19:31:16Z</time>
      </trkpt>
      <trkpt lat="59.9767346" lon="17.7393393">
        <ele>33.3029</ele>
        <time>2013-04-12T19:31:17Z</time>
      </trkpt>
      <trkpt lat="59.9767447" lon="17.7393324">
        <ele>33.7834</ele>
        <time>2013-04-12T19:31:18Z</time>
      </trkpt>
      <trkpt lat="59.9767536" lon="17.7393267">
        <ele>33.7834</ele>
        <time>2013-04-12T19:31:19Z</time>
      </trkpt>
      <trkpt lat="59.9767623" lon="17.739321">
        <ele>33.7834</ele>
        <time>2013-04-12T19:31:20Z</time>
      </trkpt>
      <trkpt lat="59.9767717" lon="17.7393163">
        <ele>33.7834</ele>
        <time>2013-04-12T19:31:21Z</time>
      </trkpt>
      <trkpt lat="59.9767812" lon="17.7393134">
        <ele>33.7834</ele>
        <time>2013-04-12T19:31:22Z</time>
      </trkpt>
      <trkpt lat="59.976791" lon="17.7393111">
        <ele>33.7834</ele>
        <time>2013-04-12T19:31:23Z</time>
      </trkpt>
      <trkpt lat="59.9768002" lon="17.7393077">
        <ele>33.3029</ele>
        <time>2013-04-12T19:31:24Z</time>
      </trkpt>
      <trkpt lat="59.9768101" lon="17.7393029">
        <ele>33.7834</ele>
        <time>2013-04-12T19:31:25Z</time>
      </trkpt>
      <trkpt lat="59.9768198" lon="17.7393016">
        <ele>33.7834</ele>
        <time>2013-04-12T19:31:26Z</time>
      </trkpt>
      <trkpt lat="59.9768294" lon="17.7393015">
        <ele>33.7834</ele>
        <time>2013-04-12T19:31:27Z</time>
      </trkpt>
      <trkpt lat="59.9768376" lon="17.7392973">
        <ele>33.3029</ele>
        <time>2013-04-12T19:31:28Z</time>
      </trkpt>
      <trkpt lat="59.9768488" lon="17.7392915">
        <ele>33.3029</ele>
        <time>2013-04-12T19:31:29Z</time>
      </trkpt>
      <trkpt lat="59.9768607" lon="17.7392855">
        <ele>33.3029</ele>
        <time>2013-04-12T19:31:30Z</time>
      </trkpt>
      <trkpt lat="59.9768711" lon="17.7392808">
        <ele>33.3029</ele>
        <time>2013-04-12T19:31:31Z</time>
      </trkpt>
      <trkpt lat="59.9768825" lon="17.739276">
        <ele>32.8223</ele>
        <time>2013-04-12T19:31:32Z</time>
      </trkpt>
      <trkpt lat="59.9768939" lon="17.739273">
        <ele>32.8223</ele>
        <time>2013-04-12T19:31:33Z</time>
      </trkpt>
      <trkpt lat="59.9769073" lon="17.7392705">
        <ele>32.8223</ele>
        <time>2013-04-12T19:31:34Z</time>
      </trkpt>
      <trkpt lat="59.9769196" lon="17.7392683">
        <ele>32.8223</ele>
        <time>2013-04-12T19:31:35Z</time>
      </trkpt>
      <trkpt lat="59.9769314" lon="17.739266">
        <ele>32.8223</ele>
        <time>2013-04-12T19:31:36Z</time>
      </trkpt>
      <trkpt lat="59.9769426" lon="17.7392652">
        <ele>32.3416</ele>
        <time>2013-04-12T19:31:37Z</time>
      </trkpt>
      <trkpt lat="59.9769555" lon="17.7392642">
        <ele>32.3416</ele>
        <time>2013-04-12T19:31:38Z</time>
      </trkpt>
      <trkpt lat="59.9769656" lon="17.7392616">
        <ele>31.8607</ele>
        <time>2013-04-12T19:31:39Z</time>
      </trkpt>
      <trkpt lat="59.9769749" lon="17.73926">
        <ele>31.3801</ele>
        <time>2013-04-12T19:31:40Z</time>
      </trkpt>
      <trkpt lat="59.9769858" lon="17.739259">
        <ele>30.8995</ele>
        <time>2013-04-12T19:31:41Z</time>
      </trkpt>
      <trkpt lat="59.9769967" lon="17.7392595">
        <ele>30.8995</ele>
        <time>2013-04-12T19:31:42Z</time>
      </trkpt>
      <trkpt lat="59.9770099" lon="17.7392625">
        <ele>30.8995</ele>
        <time>2013-04-12T19:31:43Z</time>
      </trkpt>
      <trkpt lat="59.9770236" lon="17.7392646">
        <ele>30.4188</ele>
        <time>2013-04-12T19:31:44Z</time>
      </trkpt>
      <trkpt lat="59.9770372" lon="17.7392646">
        <ele>30.4188</ele>
        <time>2013-04-12T19:31:45Z</time>
      </trkpt>
      <trkpt lat="59.9770505" lon="17.7392627">
        <ele>30.4188</ele>
        <time>2013-04-12T19:31:46Z</time>
      </trkpt>
      <trkpt lat="59.9770633" lon="17.7392621">
        <ele>29.9381</ele>
        <time>2013-04-12T19:31:47Z</time>
      </trkpt>
      <trkpt lat="59.9770775" lon="17.7392598">
        <ele>29.9381</ele>
        <time>2013-04-12T19:31:48Z</time>
      </trkpt>
      <trkpt lat="59.9770887" lon="17.7392507">
        <ele>29.9381</ele>
        <time>2013-04-12T19:31:49Z</time>
      </trkpt>
      <trkpt lat="59.9770982" lon="17.7392404">
        <ele>29.9381</ele>
        <time>2013-04-12T19:31:50Z</time>
      </trkpt>
      <trkpt lat="59.9771088" lon="17.7392351">
        <ele>29.4575</ele>
        <time>2013-04-12T19:31:51Z</time>
      </trkpt>
      <trkpt lat="59.9771197" lon="17.7392293">
        <ele>29.4575</ele>
        <time>2013-04-12T19:31:52Z</time>
      </trkpt>
      <trkpt lat="59.9771299" lon="17.7392217">
        <ele>29.4575</ele>
        <time>2013-04-12T19:31:53Z</time>
      </trkpt>
      <trkpt lat="59.977141" lon="17.7392139">
        <ele>29.4575</ele>
        <time>2013-04-12T19:31:54Z</time>
      </trkpt>
      <trkpt lat="59.9771514" lon="17.7392097">
        <ele>28.9769</ele>
        <time>2013-04-12T19:31:55Z</time>
      </trkpt>
      <trkpt lat="59.9771622" lon="17.7392083">
        <ele>28.9769</ele>
        <time>2013-04-12T19:31:56Z</time>
      </trkpt>
      <trkpt lat="59.9771734" lon="17.739205">
        <ele>28.4962</ele>
        <time>2013-04-12T19:31:57Z</time>
      </trkpt>
      <trkpt lat="59.977185" lon="17.7391984">
        <ele>28.4962</ele>
        <time>2013-04-12T19:31:58Z</time>
      </trkpt>
      <trkpt lat="59.9771971" lon="17.7391904">
        <ele>28.4962</ele>
        <time>2013-04-12T19:31:59Z</time>
      </trkpt>
      <trkpt lat="59.9772102" lon="17.7391835">
        <ele>28.4962</ele>
        <time>2013-04-12T19:32:00Z</time>
      </trkpt>
      <trkpt lat="59.9772213" lon="17.7391751">
        <ele>28.4962</ele>
        <time>2013-04-12T19:32:01Z</time>
      </trkpt>
      <trkpt lat="59.9772322" lon="17.7391667">
        <ele>28.0155</ele>
        <time>2013-04-12T19:32:02Z</time>
      </trkpt>
      <trkpt lat="59.9772447" lon="17.7391601">
        <ele>28.0155</ele>
        <time>2013-04-12T19:32:03Z</time>
      </trkpt>
      <trkpt lat="59.9772566" lon="17.7391529">
        <ele>28.0155</ele>
        <time>2013-04-12T19:32:04Z</time>
      </trkpt>
      <trkpt lat="59.9772668" lon="17.7391405">
        <ele>28.4962</ele>
        <time>2013-04-12T19:32:05Z</time>
      </trkpt>
      <trkpt lat="59.9772764" lon="17.7391259">
        <ele>28.4962</ele>
        <time>2013-04-12T19:32:06Z</time>
      </trkpt>
      <trkpt lat="59.9772867" lon="17.7391141">
        <ele>28.9769</ele>
        <time>2013-04-12T19:32:07Z</time>
      </trkpt>
      <trkpt lat="59.977299" lon="17.7391055">
        <ele>28.9769</ele>
        <time>2013-04-12T19:32:08Z</time>
      </trkpt>
      <trkpt lat="59.977309" lon="17.739098">
        <ele>28.9769</ele>
        <time>2013-04-12T19:32:09Z</time>
      </trkpt>
      <trkpt lat="59.9773199" lon="17.7390886">
        <ele>29.4575</ele>
        <time>2013-04-12T19:32:10Z</time>
      </trkpt>
      <trkpt lat="59.9773292" lon="17.7390798">
        <ele>28.9769</ele>
        <time>2013-04-12T19:32:11Z</time>
      </trkpt>
      <trkpt lat="59.97734" lon="17.7390725">
        <ele>28.9769</ele>
        <time>2013-04-12T19:32:12Z</time>
      </trkpt>
      <trkpt lat="59.9773504" lon="17.7390676">
        <ele>29.4575</ele>
        <time>2013-04-12T19:32:13Z</time>
      </trkpt>
      <trkpt lat="59.9773613" lon="17.7390619">
        <ele>29.4575</ele>
        <time>2013-04-12T19:32:14Z</time>
      </trkpt>
      <trkpt lat="59.9773716" lon="17.7390553">
        <ele>29.4575</ele>
        <time>2013-04-12T19:32:15Z</time>
      </trkpt>
      <trkpt lat="59.9773816" lon="17.7390456">
        <ele>29.4575</ele>
        <time>2013-04-12T19:32:16Z</time>
      </trkpt>
      <trkpt lat="59.9773907" lon="17.7390357">
        <ele>29.4575</ele>
        <time>2013-04-12T19:32:17Z</time>
      </trkpt>
      <trkpt lat="59.9774007" lon="17.7390294">
        <ele>29.4575</ele>
        <time>2013-04-12T19:32:18Z</time>
      </trkpt>
      <trkpt lat="59.9774131" lon="17.7390226">
        <ele>29.9381</ele>
        <time>2013-04-12T19:32:19Z</time>
      </trkpt>
      <trkpt lat="59.9774224" lon="17.7390166">
        <ele>29.9381</ele>
        <time>2013-04-12T19:32:20Z</time>
      </trkpt>
      <trkpt lat="59.9774333" lon="17.7390118">
        <ele>29.9381</ele>
        <time>2013-04-12T19:32:21Z</time>
      </trkpt>
      <trkpt lat="59.9774435" lon="17.7390068">
        <ele>29.9381</ele>
        <time>2013-04-12T19:32:22Z</time>
      </trkpt>
      <trkpt lat="59.977453" lon="17.7390015">
        <ele>29.4575</ele>
        <time>2013-04-12T19:32:23Z</time>
      </trkpt>
      <trkpt lat="59.9774619" lon="17.7389913">
        <ele>29.4575</ele>
        <time>2013-04-12T19:32:24Z</time>
      </trkpt>
      <trkpt lat="59.9774713" lon="17.7389803">
        <ele>28.9769</ele>
        <time>2013-04-12T19:32:25Z</time>
      </trkpt>
      <trkpt lat="59.9774831" lon="17.7389741">
        <ele>28.9769</ele>
        <time>2013-04-12T19:32:26Z</time>
      </trkpt>
      <trkpt lat="59.9774979" lon="17.7389678">
        <ele>29.4575</ele>
        <time>2013-04-12T19:32:27Z</time>
      </trkpt>
      <trkpt lat="59.977511" lon="17.7389644">
        <ele>29.9381</ele>
        <time>2013-04-12T19:32:28Z</time>
      </trkpt>
      <trkpt lat="59.9775264" lon="17.7389617">
        <ele>30.4188</ele>
        <time>2013-04-12T19:32:29Z</time>
      </trkpt>
      <trkpt lat="59.9775393" lon="17.7389564">
        <ele>30.8995</ele>
        <time>2013-04-12T19:32:30Z</time>
      </trkpt>
      <trkpt lat="59.9775518" lon="17.7389534">
        <ele>30.8995</ele>
        <time>2013-04-12T19:32:31Z</time>
      </trkpt>
      <trkpt lat="59.9775658" lon="17.7389513">
        <ele>31.3801</ele>
        <time>2013-04-12T19:32:32Z</time>
      </trkpt>
      <trkpt lat="59.9775782" lon="17.7389483">
        <ele>31.3801</ele>
        <time>2013-04-12T19:32:33Z</time>
      </trkpt>
      <trkpt lat="59.9775901" lon="17.7389456">
        <ele>31.3801</ele>
        <time>2013-04-12T19:32:34Z</time>
      </trkpt>
      <trkpt lat="59.9776038" lon="17.7389439">
        <ele>31.8607</ele>
        <time>2013-04-12T19:32:35Z</time>
      </trkpt>
      <trkpt lat="59.9776167" lon="17.7389441">
        <ele>32.3416</ele>
        <time>2013-04-12T19:32:36Z</time>
      </trkpt>
      <trkpt lat="59.9776295" lon="17.7389444">
        <ele>32.8223</ele>
        <time>2013-04-12T19:32:37Z</time>
      </trkpt>
      <trkpt lat="59.9776429" lon="17.7389454">
        <ele>32.8223</ele>
        <time>2013-04-12T19:32:38Z</time>
      </trkpt>
      <trkpt lat="59.9776543" lon="17.7389487">
        <ele>32.8223</ele>
        <time>2013-04-12T19:32:39Z</time>
      </trkpt>
      <trkpt lat="59.9776738" lon="17.7389449">
        <ele>33.3029</ele>
        <time>2013-04-12T19:32:40Z</time>
      </trkpt>
      <trkpt lat="59.9776861" lon="17.7389454">
        <ele>33.3029</ele>
        <time>2013-04-12T19:32:41Z</time>
      </trkpt>
      <trkpt lat="59.9777005" lon="17.7389491">
        <ele>33.7834</ele>
        <time>2013-04-12T19:32:42Z</time>
      </trkpt>
      <trkpt lat="59.9777162" lon="17.7389534">
        <ele>34.2642</ele>
        <time>2013-04-12T19:32:43Z</time>
      </trkpt>
      <trkpt lat="59.9777302" lon="17.738957">
        <ele>34.2642</ele>
        <time>2013-04-12T19:32:44Z</time>
      </trkpt>
      <trkpt lat="59.9777448" lon="17.7389591">
        <ele>34.2642</ele>
        <time>2013-04-12T19:32:45Z</time>
      </trkpt>
      <trkpt lat="59.9777577" lon="17.7389633">
        <ele>34.7449</ele>
        <time>2013-04-12T19:32:46Z</time>
      </trkpt>
      <trkpt lat="59.9777705" lon="17.7389663">
        <ele>34.7449</ele>
        <time>2013-04-12T19:32:47Z</time>
      </trkpt>
      <trkpt lat="59.9777834" lon="17.7389705">
        <ele>35.2255</ele>
        <time>2013-04-12T19:32:48Z</time>
      </trkpt>
      <trkpt lat="59.9777969" lon="17.7389746">
        <ele>35.7061</ele>
        <time>2013-04-12T19:32:49Z</time>
      </trkpt>
      <trkpt lat="59.9778089" lon="17.7389786">
        <ele>36.1868</ele>
        <time>2013-04-12T19:32:50Z</time>
      </trkpt>
      <trkpt lat="59.9778219" lon="17.7389854">
        <ele>36.1868</ele>
        <time>2013-04-12T19:32:51Z</time>
      </trkpt>
      <trkpt lat="59.9778389" lon="17.7389934">
        <ele>36.6675</ele>
        <time>2013-04-12T19:32:52Z</time>
      </trkpt>
      <trkpt lat="59.9778546" lon="17.7390011">
        <ele>36.6675</ele>
        <time>2013-04-12T19:32:53Z</time>
      </trkpt>
      <trkpt lat="59.9778677" lon="17.7390052">
        <ele>37.1481</ele>
        <time>2013-04-12T19:32:54Z</time>
      </trkpt>
      <trkpt lat="59.9778788" lon="17.7390113">
        <ele>37.1481</ele>
        <time>2013-04-12T19:32:55Z</time>
      </trkpt>
      <trkpt lat="59.9778921" lon="17.7390181">
        <ele>37.1481</ele>
        <time>2013-04-12T19:32:56Z</time>
      </trkpt>
      <trkpt lat="59.977905" lon="17.7390247">
        <ele>37.1481</ele>
        <time>2013-04-12T19:32:57Z</time>
      </trkpt>
      <trkpt lat="59.9779161" lon="17.7390305">
        <ele>37.1481</ele>
        <time>2013-04-12T19:32:58Z</time>
      </trkpt>
      <trkpt lat="59.9779284" lon="17.7390386">
        <ele>36.6675</ele>
        <time>2013-04-12T19:32:59Z</time>
      </trkpt>
      <trkpt lat="59.977941" lon="17.7390447">
        <ele>36.6675</ele>
        <time>2013-04-12T19:33:00Z</time>
      </trkpt>
      <trkpt lat="59.9779565" lon="17.7390524">
        <ele>37.1481</ele>
        <time>2013-04-12T19:33:01Z</time>
      </trkpt>
      <trkpt lat="59.977972" lon="17.7390566">
        <ele>37.6287</ele>
        <time>2013-04-12T19:33:02Z</time>
      </trkpt>
      <trkpt lat="59.9779846" lon="17.7390637">
        <ele>37.1481</ele>
        <time>2013-04-12T19:33:03Z</time>
      </trkpt>
      <trkpt lat="59.9780005" lon="17.7390777">
        <ele>38.1094</ele>
        <time>2013-04-12T19:33:04Z</time>
      </trkpt>
      <trkpt lat="59.9780107" lon="17.7390854">
        <ele>38.1094</ele>
        <time>2013-04-12T19:33:05Z</time>
      </trkpt>
      <trkpt lat="59.9780265" lon="17.7391004">
        <ele>38.5901</ele>
        <time>2013-04-12T19:33:06Z</time>
      </trkpt>
      <trkpt lat="59.9780435" lon="17.7391159">
        <ele>39.5513</ele>
        <time>2013-04-12T19:33:07Z</time>
      </trkpt>
      <trkpt lat="59.978058" lon="17.7391236">
        <ele>40.0321</ele>
        <time>2013-04-12T19:33:08Z</time>
      </trkpt>
      <trkpt lat="59.978071" lon="17.7391275">
        <ele>40.0321</ele>
        <time>2013-04-12T19:33:09Z</time>
      </trkpt>
      <trkpt lat="59.9780865" lon="17.7391388">
        <ele>40.5128</ele>
        <time>2013-04-12T19:33:10Z</time>
      </trkpt>
      <trkpt lat="59.978102" lon="17.7391545">
        <ele>40.9934</ele>
        <time>2013-04-12T19:33:11Z</time>
      </trkpt>
      <trkpt lat="59.9781176" lon="17.7391715">
        <ele>41.9547</ele>
        <time>2013-04-12T19:33:12Z</time>
      </trkpt>
      <trkpt lat="59.9781351" lon="17.739199">
        <ele>43.3966</ele>
        <time>2013-04-12T19:33:13Z</time>
      </trkpt>
      <trkpt lat="59.9781482" lon="17.7392132">
        <ele>42.916</ele>
        <time>2013-04-12T19:33:14Z</time>
      </trkpt>
      <trkpt lat="59.9781611" lon="17.7392174">
        <ele>42.916</ele>
        <time>2013-04-12T19:33:15Z</time>
      </trkpt>
      <trkpt lat="59.9781736" lon="17.7392232">
        <ele>42.916</ele>
        <time>2013-04-12T19:33:16Z</time>
      </trkpt>
      <trkpt lat="59.9781848" lon="17.7392263">
        <ele>42.4354</ele>
        <time>2013-04-12T19:33:17Z</time>
      </trkpt>
      <trkpt lat="59.9781968" lon="17.7392247">
        <ele>41.9547</ele>
        <time>2013-04-12T19:33:18Z</time>
      </trkpt>
      <trkpt lat="59.9782108" lon="17.7392236">
        <ele>41.9547</ele>
        <time>2013-04-12T19:33:19Z</time>
      </trkpt>
      <trkpt lat="59.9782224" lon="17.7392288">
        <ele>41.9547</ele>
        <time>2013-04-12T19:33:20Z</time>
      </trkpt>
      <trkpt lat="59.9782352" lon="17.7392289">
        <ele>41.474</ele>
        <time>2013-04-12T19:33:21Z</time>
      </trkpt>
      <trkpt lat="59.9782466" lon="17.739227">
        <ele>41.474</ele>
        <time>2013-04-12T19:33:22Z</time>
      </trkpt>
      <trkpt lat="59.9782615" lon="17.7392341">
        <ele>41.9547</ele>
        <time>2013-04-12T19:33:23Z</time>
      </trkpt>
      <trkpt lat="59.9782749" lon="17.7392383">
        <ele>41.9547</ele>
        <time>2013-04-12T19:33:24Z</time>
      </trkpt>
      <trkpt lat="59.978286" lon="17.739242">
        <ele>41.474</ele>
        <time>2013-04-12T19:33:25Z</time>
      </trkpt>
      <trkpt lat="59.9782984" lon="17.7392445">
        <ele>40.9934</ele>
        <time>2013-04-12T19:33:26Z</time>
      </trkpt>
      <trkpt lat="59.9783117" lon="17.739246">
        <ele>40.9934</ele>
        <time>2013-04-12T19:33:27Z</time>
      </trkpt>
      <trkpt lat="59.9783253" lon="17.7392506">
        <ele>40.9934</ele>
        <time>2013-04-12T19:33:28Z</time>
      </trkpt>
      <trkpt lat="59.9783381" lon="17.7392523">
        <ele>40.9934</ele>
        <time>2013-04-12T19:33:29Z</time>
      </trkpt>
      <trkpt lat="59.9783495" lon="17.7392461">
        <ele>40.5128</ele>
        <time>2013-04-12T19:33:30Z</time>
      </trkpt>
      <trkpt lat="59.9783611" lon="17.7392412">
        <ele>40.5128</ele>
        <time>2013-04-12T19:33:31Z</time>
      </trkpt>
      <trkpt lat="59.9783724" lon="17.7392388">
        <ele>40.0321</ele>
        <time>2013-04-12T19:33:32Z</time>
      </trkpt>
      <trkpt lat="59.9783818" lon="17.7392367">
        <ele>40.0321</ele>
        <time>2013-04-12T19:33:33Z</time>
      </trkpt>
      <trkpt lat="59.9783911" lon="17.7392367">
        <ele>39.5513</ele>
        <time>2013-04-12T19:33:34Z</time>
      </trkpt>
      <trkpt lat="59.978402" lon="17.7392352">
        <ele>38.5901</ele>
        <time>2013-04-12T19:33:35Z</time>
      </trkpt>
      <trkpt lat="59.9784139" lon="17.7392362">
        <ele>38.5901</ele>
        <time>2013-04-12T19:33:36Z</time>
      </trkpt>
      <trkpt lat="59.9784305" lon="17.739243">
        <ele>39.0707</ele>
        <time>2013-04-12T19:33:37Z</time>
      </trkpt>
      <trkpt lat="59.9784435" lon="17.7392471">
        <ele>38.5901</ele>
        <time>2013-04-12T19:33:38Z</time>
      </trkpt>
      <trkpt lat="59.9784513" lon="17.7392502">
        <ele>38.1094</ele>
        <time>2013-04-12T19:33:39Z</time>
      </trkpt>
      <trkpt lat="59.9784614" lon="17.7392523">
        <ele>37.6287</ele>
        <time>2013-04-12T19:33:40Z</time>
      </trkpt>
      <trkpt lat="59.9784695" lon="17.7392517">
        <ele>37.1481</ele>
        <time>2013-04-12T19:33:41Z</time>
      </trkpt>
      <trkpt lat="59.9784792" lon="17.7392563">
        <ele>37.1481</ele>
        <time>2013-04-12T19:33:42Z</time>
      </trkpt>
      <trkpt lat="59.9784879" lon="17.7392583">
        <ele>36.6675</ele>
        <time>2013-04-12T19:33:43Z</time>
      </trkpt>
      <trkpt lat="59.9784953" lon="17.7392579">
        <ele>35.7061</ele>
        <time>2013-04-12T19:33:44Z</time>
      </trkpt>
      <trkpt lat="59.9785067" lon="17.7392595">
        <ele>35.7061</ele>
        <time>2013-04-12T19:33:45Z</time>
      </trkpt>
      <trkpt lat="59.978513" lon="17.7392584">
        <ele>35.2255</ele>
        <time>2013-04-12T19:33:46Z</time>
      </trkpt>
      <trkpt lat="59.9785211" lon="17.7392523">
        <ele>35.2255</ele>
        <time>2013-04-12T19:33:47Z</time>
      </trkpt>
      <trkpt lat="59.9785341" lon="17.7392563">
        <ele>35.2255</ele>
        <time>2013-04-12T19:33:48Z</time>
      </trkpt>
      <trkpt lat="59.9785437" lon="17.7392564">
        <ele>34.7449</ele>
        <time>2013-04-12T19:33:49Z</time>
      </trkpt>
      <trkpt lat="59.9785531" lon="17.739257">
        <ele>34.2642</ele>
        <time>2013-04-12T19:33:50Z</time>
      </trkpt>
      <trkpt lat="59.9785648" lon="17.7392601">
        <ele>34.2642</ele>
        <time>2013-04-12T19:33:51Z</time>
      </trkpt>
      <trkpt lat="59.9785792" lon="17.7392667">
        <ele>34.2642</ele>
        <time>2013-04-12T19:33:52Z</time>
      </trkpt>
      <trkpt lat="59.9785937" lon="17.7392703">
        <ele>34.2642</ele>
        <time>2013-04-12T19:33:53Z</time>
      </trkpt>
      <trkpt lat="59.9786054" lon="17.7392715">
        <ele>33.7834</ele>
        <time>2013-04-12T19:33:54Z</time>
      </trkpt>
      <trkpt lat="59.9786191" lon="17.7392715">
        <ele>33.7834</ele>
        <time>2013-04-12T19:33:55Z</time>
      </trkpt>
      <trkpt lat="59.9786306" lon="17.7392663">
        <ele>33.7834</ele>
        <time>2013-04-12T19:33:56Z</time>
      </trkpt>
      <trkpt lat="59.9786468" lon="17.739265">
        <ele>33.7834</ele>
        <time>2013-04-12T19:33:57Z</time>
      </trkpt>
      <trkpt lat="59.9786596" lon="17.739266">
        <ele>34.2642</ele>
        <time>2013-04-12T19:33:58Z</time>
      </trkpt>
      <trkpt lat="59.978673" lon="17.7392682">
        <ele>34.2642</ele>
        <time>2013-04-12T19:33:59Z</time>
      </trkpt>
      <trkpt lat="59.9786842" lon="17.7392708">
        <ele>33.7834</ele>
        <time>2013-04-12T19:34:00Z</time>
      </trkpt>
      <trkpt lat="59.9786951" lon="17.7392745">
        <ele>33.7834</ele>
        <time>2013-04-12T19:34:01Z</time>
      </trkpt>
      <trkpt lat="59.9787092" lon="17.7392915">
        <ele>34.2642</ele>
        <time>2013-04-12T19:34:02Z</time>
      </trkpt>
      <trkpt lat="59.9787224" lon="17.7393104">
        <ele>34.2642</ele>
        <time>2013-04-12T19:34:03Z</time>
      </trkpt>
      <trkpt lat="59.9787381" lon="17.7393165">
        <ele>34.2642</ele>
        <time>2013-04-12T19:34:04Z</time>
      </trkpt>
      <trkpt lat="59.9787517" lon="17.7393235">
        <ele>34.2642</ele>
        <time>2013-04-12T19:34:05Z</time>
      </trkpt>
      <trkpt lat="59.9787682" lon="17.7393308">
        <ele>34.2642</ele>
        <time>2013-04-12T19:34:06Z</time>
      </trkpt>
      <trkpt lat="59.9787812" lon="17.7393351">
        <ele>34.2642</ele>
        <time>2013-04-12T19:34:07Z</time>
      </trkpt>
      <trkpt lat="59.9787914" lon="17.7393371">
        <ele>33.7834</ele>
        <time>2013-04-12T19:34:08Z</time>
      </trkpt>
      <trkpt lat="59.9788061" lon="17.7393345">
        <ele>33.3029</ele>
        <time>2013-04-12T19:34:09Z</time>
      </trkpt>
      <trkpt lat="59.97882" lon="17.7393332">
        <ele>33.3029</ele>
        <time>2013-04-12T19:34:10Z</time>
      </trkpt>
      <trkpt lat="59.9788328" lon="17.7393352">
        <ele>33.3029</ele>
        <time>2013-04-12T19:34:11Z</time>
      </trkpt>
      <trkpt lat="59.9788454" lon="17.7393372">
        <ele>33.3029</ele>
        <time>2013-04-12T19:34:12Z</time>
      </trkpt>
      <trkpt lat="59.9788614" lon="17.7393335">
        <ele>33.7834</ele>
        <time>2013-04-12T19:34:13Z</time>
      </trkpt>
      <trkpt lat="59.9788765" lon="17.739338">
        <ele>34.2642</ele>
        <time>2013-04-12T19:34:14Z</time>
      </trkpt>
      <trkpt lat="59.9788914" lon="17.7393549">
        <ele>35.2255</ele>
        <time>2013-04-12T19:34:15Z</time>
      </trkpt>
      <trkpt lat="59.9788993" lon="17.7393705">
        <ele>34.7449</ele>
        <time>2013-04-12T19:34:16Z</time>
      </trkpt>
      <trkpt lat="59.9789003" lon="17.7393922">
        <ele>34.7449</ele>
        <time>2013-04-12T19:34:17Z</time>
      </trkpt>
      <trkpt lat="59.9788987" lon="17.7394173">
        <ele>34.7449</ele>
        <time>2013-04-12T19:34:18Z</time>
      </trkpt>
      <trkpt lat="59.9788952" lon="17.7394456">
        <ele>34.2642</ele>
        <time>2013-04-12T19:34:19Z</time>
      </trkpt>
      <trkpt lat="59.978892" lon="17.7394713">
        <ele>34.2642</ele>
        <time>2013-04-12T19:34:20Z</time>
      </trkpt>
      <trkpt lat="59.9788899" lon="17.7394941">
        <ele>33.7834</ele>
        <time>2013-04-12T19:34:21Z</time>
      </trkpt>
      <trkpt lat="59.9788863" lon="17.7395157">
        <ele>32.8223</ele>
        <time>2013-04-12T19:34:22Z</time>
      </trkpt>
      <trkpt lat="59.97888" lon="17.7395376">
        <ele>32.3416</ele>
        <time>2013-04-12T19:34:23Z</time>
      </trkpt>
      <trkpt lat="59.9788729" lon="17.7395523">
        <ele>32.3416</ele>
        <time>2013-04-12T19:34:24Z</time>
      </trkpt>
      <trkpt lat="59.9788663" lon="17.7395671">
        <ele>32.3416</ele>
        <time>2013-04-12T19:34:25Z</time>
      </trkpt>
      <trkpt lat="59.9788585" lon="17.7395829">
        <ele>33.3029</ele>
        <time>2013-04-12T19:34:26Z</time>
      </trkpt>
      <trkpt lat="59.978851" lon="17.7395926">
        <ele>33.3029</ele>
        <time>2013-04-12T19:34:27Z</time>
      </trkpt>
      <trkpt lat="59.9788413" lon="17.7396045">
        <ele>33.7834</ele>
        <time>2013-04-12T19:34:28Z</time>
      </trkpt>
      <trkpt lat="59.9788299" lon="17.7396159">
        <ele>33.7834</ele>
        <time>2013-04-12T19:34:29Z</time>
      </trkpt>
      <trkpt lat="59.9788194" lon="17.7396324">
        <ele>34.2642</ele>
        <time>2013-04-12T19:34:30Z</time>
      </trkpt>
      <trkpt lat="59.9788087" lon="17.7396464">
        <ele>34.2642</ele>
        <time>2013-04-12T19:34:31Z</time>
      </trkpt>
      <trkpt lat="59.9787998" lon="17.7396583">
        <ele>34.2642</ele>
        <time>2013-04-12T19:34:32Z</time>
      </trkpt>
      <trkpt lat="59.9787965" lon="17.7396813">
        <ele>35.2255</ele>
        <time>2013-04-12T19:34:33Z</time>
      </trkpt>
      <trkpt lat="59.9787961" lon="17.7397033">
        <ele>35.7061</ele>
        <time>2013-04-12T19:34:34Z</time>
      </trkpt>
      <trkpt lat="59.9787979" lon="17.7397241">
        <ele>36.1868</ele>
        <time>2013-04-12T19:34:35Z</time>
      </trkpt>
      <trkpt lat="59.9787965" lon="17.7397436">
        <ele>36.6675</ele>
        <time>2013-04-12T19:34:36Z</time>
      </trkpt>
      <trkpt lat="59.9787956" lon="17.7397686">
        <ele>37.1481</ele>
        <time>2013-04-12T19:34:37Z</time>
      </trkpt>
      <trkpt lat="59.9787971" lon="17.7397931">
        <ele>37.6287</ele>
        <time>2013-04-12T19:34:38Z</time>
      </trkpt>
      <trkpt lat="59.9788007" lon="17.7398153">
        <ele>38.5901</ele>
        <time>2013-04-12T19:34:39Z</time>
      </trkpt>
      <trkpt lat="59.9788041" lon="17.7398336">
        <ele>38.5901</ele>
        <time>2013-04-12T19:34:40Z</time>
      </trkpt>
      <trkpt lat="59.9788103" lon="17.7398584">
        <ele>39.0707</ele>
        <time>2013-04-12T19:34:41Z</time>
      </trkpt>
      <trkpt lat="59.9788155" lon="17.7398812">
        <ele>39.5513</ele>
        <time>2013-04-12T19:34:42Z</time>
      </trkpt>
      <trkpt lat="59.9788201" lon="17.7399007">
        <ele>40.0321</ele>
        <time>2013-04-12T19:34:43Z</time>
      </trkpt>
      <trkpt lat="59.9788253" lon="17.7399231">
        <ele>40.5128</ele>
        <time>2013-04-12T19:34:44Z</time>
      </trkpt>
      <trkpt lat="59.9788294" lon="17.7399395">
        <ele>40.0321</ele>
        <time>2013-04-12T19:34:45Z</time>
      </trkpt>
      <trkpt lat="59.9788334" lon="17.739949">
        <ele>40.0321</ele>
        <time>2013-04-12T19:34:46Z</time>
      </trkpt>
      <trkpt lat="59.9788386" lon="17.7399545">
        <ele>39.5513</ele>
        <time>2013-04-12T19:34:47Z</time>
      </trkpt>
      <trkpt lat="59.9788437" lon="17.7399569">
        <ele>39.5513</ele>
        <time>2013-04-12T19:34:48Z</time>
      </trkpt>
    </trkseg>
  </trk>
</gpx>